• Join FlightAware (Why Join?)
  • Login
  • US Flag 
 
07:10PM EST


 

Airport Tracker/Info


-or-


 

Live Flight TrackerFlight Track Log ✈ N58EG ✈ 27-May-2013 ✈ KHYA - KHPN

Flight Track Log - Related Links

Times and Time Zones

All times are in EDT time to prevent confusion due to time zone crossing. See the N58EG flight status page for this flight to view local times or setup timezone preferences in your user account.

Time Position Orientation Groundspeed Altitude Reporting Facility
EDT Latitude Longitude Course Direction KTS MPH feet Rate Location/Type
07:18PM 41.5561 -70.8978 257° West 159 183 4,600  Level Boston Center
07:19PM 41.5467 -70.9533 257° West 160 184 4,600  Level Boston Center
07:20PM 41.5389 -71.0064 259° West 160 184 4,600  Level Boston Center
07:21PM 41.5253 -71.0786 256° West 161 185 4,600  Level Boston Center
07:22PM 41.5156 -71.1369 257° West 160 184 4,600  Level Boston Center
07:23PM 41.5078 -71.1928 259° West 160 184 4,600  Level Boston Center
07:24PM 41.4981 -71.2511 257° West 161 185 4,600  Level Boston Center
07:25PM 41.4903 -71.3094 260° West 162 186 4,600  Level Boston Center
07:26PM 41.4783 -71.3650 254° West 163 188 4,600  Level Boston Center
07:27PM 41.4683 -71.4178 256° West 162 186 4,600  Level Boston Center
07:28PM 41.4586 -71.4844 259° West 164 189 4,600  Level Boston Center
07:29PM 41.4506 -71.5372 259° West 164 189 4,600  Level Boston Center
07:30PM 41.4386 -71.5983 255° West 162 186 4,600  Level Boston Center
07:31PM 41.4286 -71.6650 259° West 162 186 4,600  Level Boston Center
07:32PM 41.4186 -71.7258 258° West 163 188 4,600  Level Boston Center
07:33PM 41.4086 -71.7842 257° West 164 189 4,600  Level Boston Center
07:34PM 41.4006 -71.8422 260° West 163 188 4,600  Level Boston Center
07:35PM 41.3883 -71.8950 253° West 160 184 4,600  Level Boston Center
07:36PM 41.3803 -71.9558 260° West 162 186 4,600  Level Boston Center
07:37PM 41.3658 -72.0225 254° West 165 190 4,600  Level Boston Center
07:38PM 41.3600 -72.0833 263° West 165 190 4,600  Level Boston Center
07:39PM 41.3497 -72.1414 257° West 166 191 4,600  Level Boston Center
07:41PM 41.3167 -72.2667 251° West 165 190 4,600  Level New York TRACON
07:42PM 41.3167 -72.3167 270° West 163 188 4,600  Level New York TRACON
07:43PM 41.3000 -72.3833 252° West 164 189 4,600  Level New York TRACON
07:44PM 41.3000 -72.4500 270° West 165 190 4,600  Level New York TRACON
07:45PM 41.2833 -72.5000 246° West 165 190 4,600  Level New York TRACON
07:46PM 41.2667 -72.5667 252° West 166 191 4,600  Level New York TRACON
07:47PM 41.2667 -72.6167 270° West 163 188 4,600  Level New York TRACON
07:48PM 41.2500 -72.6667 246° West 165 190 4,600  Level New York TRACON
07:49PM 41.2500 -72.7167 270° West 162 186 4,600  Level New York TRACON
07:50PM 41.2333 -72.7833 252° West 164 189 4,600  Level New York TRACON
07:51PM 41.2167 -72.8333 246° West 163 188 4,600  Level New York TRACON
07:52PM 41.2167 -72.9000 270° West 166 191 4,600  Level New York TRACON
07:53PM 41.2000 -72.9500 246° West 160 184 4,600  Level New York TRACON
07:54PM 41.2000 -73.0167 270° West 163 188 4,600  Level New York TRACON
07:55PM 41.1833 -73.0667 246° West 161 185 4,600  Level New York TRACON
07:56PM 41.1667 -73.1333 252° West 163 188 4,600  Level New York TRACON
07:57PM 41.1667 -73.2000 270° West 161 185 4,600 -360 Level New York TRACON
07:58PM 41.1500 -73.2500 246° West 176 203 3,900 -600 Descending New York TRACON
07:59PM 41.1333 -73.3167 252° West 179 206 3,500 -420 Descending New York TRACON
08:00PM 41.1333 -73.3833 270° West 173 199 3,100 -600 Descending New York TRACON
08:01PM 41.1167 -73.4333 246° West 182 209 2,400 -360 Descending New York TRACON
08:02PM 41.1000 -73.5000 252° West 162 186 2,500 -180 Climbing New York TRACON
08:03PM 41.0833 -73.5500 246° West 173 199 2,100 -300 Descending New York TRACON
08:04PM 41.0833 -73.6167 270° West 167 192 2,000 -120 Descending New York TRACON
08:05PM 41.0500 -73.6667 229° Southwest 153 176 1,900 -120 Descending New York TRACON
08:07PM 41.0667 -73.7000 270° West  Level FlightAware Approximate
08:14PM 41.0669 -73.7076 270° West  Level Estimated
08:15PM 41.0667 -73.7000 270° West  Level FlightAware Approximate